Marion, Utah
Current Conditions -  °F | °C
As of 10:53 AM on Sunday 25 Jan 2015 (Local Time) from KEVW Reporting Station
Clear Clear  
Wind Chill: 29°   Ceiling: Unl
Heat Index: 37°   Visibility: 10mi
Dew Point: 30°   Wind: 12mph
Humidity: 76%   Direction: 220°SW
Pressure: 30.44"   Gusts: NA
Location:  40.8065°N, 110.723°W
Report Text: KEVW 251753Z AUTO 22010KT 10SM CLR 03/M01 A3044 RMK AO2 SLP315 T00281011 10028 21028 51009
Loading
Personal Weather Stations






























Interactive Weather Map New forecast layout! Learn more

10-Day Weather Forecast

Advertisements
Track Severe Weather on mobile